AKST,Max TemperatureF,Mean TemperatureF,Min TemperatureF,Max Dew PointF,MeanDew PointF,Min DewpointF,Max Humidity, Mean Humidity, Min Humidity, Max Sea Level PressureIn, Mean Sea Level PressureIn, Min Sea Level PressureIn, Max VisibilityMiles, Mean VisibilityMiles, Min VisibilityMiles, Max Wind SpeedMPH, Mean Wind SpeedMPH, Max Gust SpeedMPH,PrecipitationIn, CloudCover, Events, WindDirDegrees
2012-12-1,34,33,32,21,14,1,0,0,0,29.55,29.47,29.42,10,10,10,23,16,32,0.00,3,,307
2012-12-2,30,26,21,14,10,5,0,0,0,29.40,29.32,29.28,10,10,10,30,17,44,0.00,1,,300
2012-12-3,24,22,20,13,11,9,0,0,0,29.47,29.40,29.30,10,10,5,28,18,39,T,5,Snow,307
2012-12-4,20,19,18,13,10,9,0,0,0,29.41,29.36,29.33,10,7,2,26,16,36,T,7,Snow,305
2012-12-5,25,22,18,21,17,14,0,0,0,29.44,29.37,29.33,10,3,0,37,24,48,0.05,8,Fog-Snow,297
2012-12-6,30,27,23,20,17,9,0,0,0,29.85,29.62,29.43,10,7,1,33,17,43,T,6,Snow,300
2012-12-7,33,28,23,31,20,17,0,0,0,29.87,29.82,29.72,10,7,1,17,8,21,0.08,8,Snow,303
2012-12-8,40,36,31,39,35,29,0,0,0,29.72,29.33,29.08,10,6,1,28,13,36,1.13,7,Rain-Snow,78
2012-12-9,41,39,36,34,31,27,0,0,0,29.58,29.36,29.21,10,10,9,12,3,17,0.03,6,Rain,204
2012-12-10,38,34,30,29,25,16,0,0,0,29.84,29.64,29.52,10,10,10,24,8,30,0.00,6,,285
2012-12-11,38,33,28,28,21,16,0,0,0,29.99,29.87,29.62,10,10,10,28,5,40,0.00,5,,276
2012-12-12,48,40,31,35,27,22,0,0,0,29.61,29.47,29.38,10,10,10,39,14,59,T,5,Rain,263
2012-12-13,43,35,27,26,21,18,0,0,0,29.56,29.46,29.29,10,10,10,33,12,44,T,4,Rain,269
2012-12-14,35,29,23,24,23,19,0,0,0,29.28,29.22,29.16,10,10,9,21,8,26,0.00,4,,283
2012-12-15,33,26,18,21,9,-7,0,0,0,29.25,29.19,29.16,10,10,9,39,21,51,T,2,Snow,284
2012-12-16,28,24,20,5,-2,-8,0,0,0,29.66,29.49,29.27,10,10,10,39,25,55,0.00,0,,290
2012-12-17,35,26,16,30,14,-1,0,0,0,29.75,29.55,29.22,10,8,2,38,11,47,0.02,5,Snow,237
2012-12-18,34,27,19,34,29,13,0,0,0,29.41,29.18,29.09,6,2,0,44,25,51,0.36,8,Snow,55
2012-12-19,27,22,16,13,10,6,0,0,0,29.84,29.63,29.44,10,7,2,35,23,48,T,3,Snow,305
2012-12-20,27,24,20,9,7,4,0,0,0,30.04,29.98,29.85,10,10,10,26,15,46,0.00,0,,308
2012-12-21,27,24,20,12,10,8,0,0,0,30.04,29.97,29.87,10,10,10,20,11,25,0.00,0,,305
2012-12-22,26,20,13,16,13,9,0,0,0,29.85,29.63,29.49,10,10,9,18,11,24,T,3,Snow,297
2012-12-23,34,25,15,31,23,11,0,0,0,29.49,29.28,29.14,10,6,0,32,11,37,0.07,7,Fog-Snow,56
2012-12-24,33,21,9,30,24,7,0,0,0,29.43,29.20,29.12,10,6,0,22,6,26,0.06,7,Snow,147
2012-12-25,27,15,3,22,8,1,0,0,0,29.61,29.56,29.45,10,10,10,9,5,10,0.00,2,,269
2012-12-26,39,21,3,39,36,28,100,94,75,29.48,29.09,28.90,10,4,1,30,22,41,0.71,8,Rain-Snow,80
2012-12-27,40,38,35,39,37,36,0,0,0,29.29,29.07,28.93,10,6,2,29,12,33,0.35,8,Rain,43
2012-12-28,40,37,33,40,35,31,0,0,0,29.47,29.35,29.05,10,3,0,37,12,43,0.59,8,Fog-Rain,124
2012-12-29,42,40,37,41,37,33,0,0,0,29.39,29.07,28.69,10,6,1,41,21,48,0.62,8,Rain,106
2012-12-30,42,41,39,41,38,34,0,0,0,29.34,28.73,28.47,10,5,2,28,23,41,0.51,8,Rain,116
2012-12-31,41,39,36,39,35,29,0,0,0,29.53,29.32,29.08,10,7,2,45,25,55,0.33,8,Rain,95